Airport ID:KJWN
Update Time (UTC):19/09/2019 07:18
Wind Speed (Knots):2
Wind Direction (Magnetic):20
Temperature (°C):20
Dew Point (°C):18
Humidity (%):88
Altimeter (inHg):30.02
Density Altitude (Feet):
Visibility (Miles):10+
Clouds (Hundreds of feet):\\\\
Present Weather:
METAR:METAR KJWN 190715Z AUTO 00000KT 10SM 20/18 A3002 RMK A01

The data displayed is for advisory purposes only and is not to be used for flight planning or operations.

This page is not automatically refreshed. Reload the page to see current data.